createdAt,value
2022-11-07T00:01:20.029Z,2.80
2022-11-07T00:03:47.113Z,2.79
2022-11-07T00:06:14.236Z,2.37
2022-11-07T00:08:41.149Z,2.85
2022-11-07T00:11:08.363Z,2.62
2022-11-07T00:13:35.332Z,2.96
2022-11-07T00:16:05.609Z,2.90
2022-11-07T00:18:33.372Z,2.93
2022-11-07T00:21:04.743Z,2.94
2022-11-07T00:23:31.664Z,2.71
2022-11-07T00:26:03.624Z,2.34
2022-11-07T00:28:34.191Z,2.93
2022-11-07T00:31:01.291Z,2.64
2022-11-07T00:33:28.298Z,2.68
2022-11-07T00:35:55.426Z,2.81
2022-11-07T00:38:22.388Z,2.92
2022-11-07T00:40:59.648Z,2.92
2022-11-07T00:43:27.121Z,2.82
2022-11-07T00:45:54.156Z,2.83
2022-11-07T00:48:21.702Z,2.49
2022-11-07T00:50:48.822Z,2.84
2022-11-07T00:53:16.107Z,2.87
2022-11-07T00:55:43.365Z,2.69
2022-11-07T00:58:13.964Z,2.70
2022-11-07T01:00:42.406Z,2.96
2022-11-07T01:03:28.082Z,3.00
2022-11-07T01:06:00.911Z,2.81
2022-11-07T01:08:28.340Z,2.84
2022-11-07T01:10:56.333Z,2.95
2022-11-07T01:13:24.720Z,2.61
2022-11-07T01:15:52.499Z,2.71
2022-11-07T01:18:19.716Z,2.92
2022-11-07T01:20:46.916Z,2.52
2022-11-07T01:23:14.240Z,2.28
2022-11-07T01:25:41.768Z,2.90
2022-11-07T01:28:10.172Z,2.17
2022-11-07T01:30:41.796Z,2.28
2022-11-07T01:33:09.392Z,2.70
2022-11-07T01:35:37.515Z,2.43
2022-11-07T01:38:04.536Z,2.37
2022-11-07T01:40:33.886Z,2.91
2022-11-07T01:43:00.920Z,3.00
2022-11-07T01:45:31.126Z,3.02
2022-11-07T01:48:02.474Z,3.01
2022-11-07T01:50:30.756Z,2.95
2022-11-07T01:52:58.002Z,1.70
2022-11-07T01:55:31.862Z,2.51
2022-11-07T01:58:05.873Z,2.59
2022-11-07T02:00:34.478Z,3.04
2022-11-07T02:03:09.442Z,3.08
2022-11-07T02:05:46.677Z,2.97
2022-11-07T02:08:15.315Z,2.95
2022-11-07T02:10:44.035Z,2.98
2022-11-07T02:13:15.567Z,2.97
2022-11-07T02:15:42.774Z,2.69
2022-11-07T02:18:09.740Z,2.95
2022-11-07T02:20:37.618Z,2.83
2022-11-07T02:23:09.213Z,2.65
2022-11-07T02:25:37.162Z,2.95
2022-11-07T02:28:08.405Z,2.86
2022-11-07T02:30:35.541Z,2.32
2022-11-07T02:33:03.111Z,2.51
2022-11-07T02:35:40.268Z,2.29
2022-11-07T02:38:11.055Z,3.14
2022-11-07T02:40:39.252Z,3.09
2022-11-07T02:43:08.556Z,2.97
2022-11-07T02:45:39.550Z,2.09
2022-11-07T02:48:06.760Z,3.15
2022-11-07T02:50:33.876Z,3.13
2022-11-07T02:53:00.841Z,3.04
2022-11-07T02:55:27.947Z,2.93
2022-11-07T02:57:54.882Z,3.20
2022-11-07T03:00:21.909Z,3.24
2022-11-07T03:02:49.410Z,3.13
2022-11-07T03:05:18.739Z,3.25
2022-11-07T03:07:47.870Z,3.24
2022-11-07T03:10:16.371Z,3.10
2022-11-07T03:12:43.572Z,3.25
2022-11-07T03:15:11.932Z,2.59
2022-11-07T03:17:39.308Z,3.09
2022-11-07T03:20:07.211Z,3.12
2022-11-07T03:22:34.189Z,3.28
2022-11-07T03:25:01.396Z,3.25
2022-11-07T03:27:30.188Z,3.33
2022-11-07T03:29:57.250Z,3.26
2022-11-07T03:32:24.307Z,3.36
2022-11-07T03:34:51.176Z,2.81
2022-11-07T03:37:18.060Z,2.80
2022-11-07T03:39:45.000Z,3.41
2022-11-07T03:42:11.921Z,2.99
2022-11-07T03:44:38.815Z,3.42
2022-11-07T03:47:05.815Z,2.99
2022-11-07T03:49:32.736Z,3.44
2022-11-07T03:52:00.132Z,3.38
2022-11-07T03:54:27.300Z,3.36
2022-11-07T03:56:54.335Z,3.48
2022-11-07T03:59:21.356Z,3.52
2022-11-07T04:01:48.696Z,3.57
2022-11-07T04:04:15.833Z,3.35
2022-11-07T04:06:42.899Z,3.55
2022-11-07T04:09:09.849Z,3.55
2022-11-07T04:11:55.561Z,3.56
2022-11-07T04:14:40.940Z,3.46
2022-11-07T04:17:19.949Z,3.40
2022-11-07T04:19:49.127Z,3.45
2022-11-07T04:22:16.552Z,3.53
2022-11-07T04:24:46.109Z,3.50
2022-11-07T04:27:33.172Z,3.60
2022-11-07T04:30:19.204Z,3.58
2022-11-07T04:32:51.364Z,3.50
2022-11-07T04:35:20.197Z,3.55
2022-11-07T04:37:48.424Z,2.36
2022-11-07T04:40:16.685Z,3.36
2022-11-07T04:42:44.898Z,3.57
2022-11-07T04:45:13.489Z,3.50
2022-11-07T04:47:41.253Z,3.58
2022-11-07T04:50:11.506Z,3.10
2022-11-07T04:52:38.934Z,3.54
2022-11-07T04:55:08.166Z,3.59
2022-11-07T04:57:35.524Z,3.52
2022-11-07T05:00:04.800Z,3.60
2022-11-07T05:02:32.213Z,3.62
2022-11-07T05:04:59.268Z,3.66
2022-11-07T05:07:26.504Z,2.81
2022-11-07T05:09:54.847Z,3.59
2022-11-07T05:12:21.987Z,3.56
2022-11-07T05:14:49.194Z,3.64
2022-11-07T05:17:17.189Z,3.23
2022-11-07T05:19:44.370Z,3.75
2022-11-07T05:22:30.057Z,3.74
2022-11-07T05:24:57.181Z,3.57
2022-11-07T05:27:25.051Z,3.65
2022-11-07T05:29:52.178Z,3.75
2022-11-07T05:32:19.371Z,3.78
2022-11-07T05:34:46.403Z,3.80
2022-11-07T05:37:13.989Z,3.74
2022-11-07T05:39:40.997Z,3.04
2022-11-07T05:42:07.885Z,3.36
2022-11-07T05:44:35.091Z,3.84
2022-11-07T05:47:02.151Z,3.26
2022-11-07T05:49:29.186Z,3.91
2022-11-07T05:51:57.118Z,3.30
2022-11-07T05:54:24.791Z,3.67
2022-11-07T05:56:55.707Z,3.89
2022-11-07T05:59:22.674Z,3.84
2022-11-07T06:01:51.255Z,3.99
2022-11-07T06:04:18.641Z,3.96
2022-11-07T06:06:45.635Z,4.03
2022-11-07T06:09:12.603Z,3.55
2022-11-07T06:11:39.597Z,3.86
2022-11-07T06:14:06.594Z,3.60
2022-11-07T06:16:33.620Z,2.96
2022-11-07T06:19:00.669Z,3.82
2022-11-07T06:21:27.539Z,3.66
2022-11-07T06:23:54.447Z,3.36
2022-11-07T06:26:21.399Z,3.91
2022-11-07T06:28:48.325Z,3.97
2022-11-07T06:31:15.579Z,4.09
2022-11-07T06:33:42.644Z,4.09
2022-11-07T06:36:12.240Z,4.13
2022-11-07T06:38:40.383Z,4.14
2022-11-07T06:41:13.324Z,4.16
2022-11-07T06:43:41.042Z,4.14
2022-11-07T06:46:11.292Z,4.18
2022-11-07T06:48:38.838Z,3.94
2022-11-07T06:51:07.086Z,4.10
2022-11-07T06:53:34.342Z,3.96
2022-11-07T06:56:02.849Z,3.55
2022-11-07T06:58:30.085Z,4.15
2022-11-07T07:01:05.072Z,4.36
2022-11-07T07:03:32.266Z,4.39
2022-11-07T07:06:04.761Z,4.36
2022-11-07T07:08:32.341Z,4.37
2022-11-07T07:11:07.539Z,4.45
2022-11-07T07:13:34.633Z,4.50
2022-11-07T07:16:02.054Z,4.55
2022-11-07T07:18:29.268Z,4.55
2022-11-07T07:21:04.700Z,4.71
2022-11-07T07:23:33.305Z,4.69
2022-11-07T07:26:03.931Z,4.79
2022-11-07T07:28:31.148Z,4.86
2022-11-07T07:31:22.412Z,4.86
2022-11-07T07:33:49.666Z,4.87
2022-11-07T07:36:20.801Z,4.84
2022-11-07T07:38:49.241Z,4.93
2022-11-07T07:41:17.661Z,4.78
2022-11-07T07:43:44.959Z,4.52
2022-11-07T07:46:16.246Z,4.97
2022-11-07T07:48:43.437Z,4.42
2022-11-07T07:51:10.531Z,4.99
2022-11-07T07:53:37.514Z,4.91
2022-11-07T07:56:06.588Z,4.84
2022-11-07T07:58:34.081Z,5.01
2022-11-07T08:01:01.552Z,4.87
2022-11-07T08:03:32.068Z,4.82
2022-11-07T08:06:07.248Z,4.94
2022-11-07T08:08:38.108Z,4.93
2022-11-07T08:11:08.218Z,4.39
2022-11-07T08:13:36.242Z,4.93
2022-11-07T08:16:05.332Z,5.11
2022-11-07T08:18:32.562Z,5.16
2022-11-07T08:20:59.778Z,5.17
2022-11-07T08:23:26.810Z,5.17
2022-11-07T08:25:55.973Z,5.04
2022-11-07T08:28:25.977Z,5.37
2022-11-07T08:31:07.581Z,5.29
2022-11-07T08:33:35.711Z,5.32
2022-11-07T08:36:04.205Z,5.39
2022-11-07T08:38:33.027Z,5.34
2022-11-07T08:41:00.629Z,5.33
2022-11-07T08:43:28.035Z,5.21
2022-11-07T08:45:56.325Z,5.26
2022-11-07T08:48:24.166Z,5.25
2022-11-07T08:50:56.750Z,5.28
2022-11-07T08:53:25.748Z,5.30
2022-11-07T08:55:53.164Z,4.78
2022-11-07T08:58:20.463Z,5.38
2022-11-07T09:00:48.206Z,5.47
2022-11-07T09:03:43.706Z,5.41
2022-11-07T09:06:02.459Z,5.34
2022-11-07T09:08:29.420Z,5.45
2022-11-07T09:10:56.379Z,5.45
2022-11-07T09:13:23.387Z,5.42
2022-11-07T09:15:51.892Z,5.44
2022-11-07T09:18:20.053Z,5.41
2022-11-07T09:20:47.620Z,5.51
2022-11-07T09:23:14.963Z,5.50
2022-11-07T09:25:42.230Z,4.84
2022-11-07T09:28:09.399Z,5.40
2022-11-07T09:30:40.565Z,5.56
2022-11-07T09:33:08.390Z,5.57
2022-11-07T09:35:35.402Z,5.39
2022-11-07T09:38:02.446Z,5.62
2022-11-07T09:40:51.341Z,5.65
2022-11-07T09:43:33.751Z,5.47
2022-11-07T09:46:38.753Z,5.67
2022-11-07T09:49:23.585Z,5.68
2022-11-07T09:52:00.862Z,5.64
2022-11-07T09:54:33.148Z,5.44
2022-11-07T09:57:01.042Z,5.57
2022-11-07T09:59:44.006Z,5.59
2022-11-07T10:02:17.543Z,5.69
2022-11-07T10:04:46.763Z,5.78
2022-11-07T10:07:58.646Z,5.80
2022-11-07T10:10:48.755Z,5.82
2022-11-07T10:13:52.955Z,5.91
2022-11-07T10:16:58.274Z,5.51
2022-11-07T10:20:08.418Z,6.01
2022-11-07T10:22:43.102Z,5.89
2022-11-07T10:25:26.807Z,5.95
2022-11-07T10:28:14.078Z,5.95
2022-11-07T10:30:44.622Z,5.85
2022-11-07T10:33:48.877Z,5.93
2022-11-07T10:36:28.794Z,5.80
2022-11-07T10:38:56.370Z,5.82
2022-11-07T10:41:27.524Z,5.60
2022-11-07T10:44:04.891Z,5.57
2022-11-07T10:46:47.779Z,5.83
2022-11-07T10:49:21.832Z,5.66
2022-11-07T10:51:49.995Z,5.71
2022-11-07T10:54:25.930Z,5.85
2022-11-07T10:57:07.101Z,5.87
2022-11-07T10:59:37.117Z,5.82
2022-11-07T11:02:20.778Z,5.83
2022-11-07T11:04:56.890Z,5.61
2022-11-07T11:07:42.034Z,5.32
2022-11-07T11:10:37.742Z,5.78
2022-11-07T11:13:05.368Z,5.55
2022-11-07T11:15:35.823Z,5.54
2022-11-07T11:18:15.086Z,5.69
2022-11-07T11:20:58.359Z,5.66
2022-11-07T11:23:29.480Z,5.46
2022-11-07T11:26:02.780Z,4.98
2022-11-07T11:28:50.127Z,5.62
2022-11-07T11:31:29.459Z,5.59
2022-11-07T11:34:03.325Z,5.60
2022-11-07T11:36:39.019Z,5.17
2022-11-07T11:39:26.530Z,5.03
2022-11-07T11:41:59.144Z,5.09
2022-11-07T11:44:40.041Z,5.44
2022-11-07T11:47:21.472Z,5.47
2022-11-07T11:50:00.925Z,4.98
2022-11-07T11:52:31.892Z,5.39
2022-11-07T11:55:00.566Z,5.48
2022-11-07T11:57:37.783Z,5.46
2022-11-07T12:00:19.834Z,4.84
2022-11-07T12:02:52.364Z,5.40
2022-11-07T12:05:28.151Z,5.26
2022-11-07T12:08:17.603Z,4.77
2022-11-07T12:11:11.405Z,4.98
2022-11-07T12:14:04.780Z,5.22
2022-11-07T12:16:43.512Z,5.19
2022-11-07T12:19:16.204Z,5.24
2022-11-07T12:21:53.706Z,4.99
2022-11-07T12:24:32.704Z,5.17
2022-11-07T12:27:28.856Z,5.18
2022-11-07T12:29:59.030Z,5.20
2022-11-07T12:32:38.463Z,4.76
2022-11-07T12:35:30.517Z,4.67
2022-11-07T12:38:25.269Z,5.07
2022-11-07T12:41:01.284Z,4.17
2022-11-07T12:43:31.022Z,4.80
2022-11-07T12:46:10.839Z,5.11
2022-11-07T12:48:46.925Z,5.12
2022-11-07T12:51:55.089Z,5.16
2022-11-07T12:54:45.505Z,5.20
2022-11-07T12:57:24.914Z,4.79
2022-11-07T13:00:07.406Z,5.00
2022-11-07T13:02:44.627Z,5.04
2022-11-07T13:05:42.307Z,5.10
2022-11-07T13:08:49.667Z,5.11
2022-11-07T13:11:34.736Z,4.85
2022-11-07T13:14:01.922Z,5.10
2022-11-07T13:16:35.392Z,5.11
2022-11-07T13:19:25.381Z,5.03
2022-11-07T13:22:03.539Z,5.14
2022-11-07T13:24:31.705Z,4.98
2022-11-07T13:26:59.696Z,4.43
2022-11-07T13:29:36.191Z,5.09
2022-11-07T13:32:11.352Z,5.14
2022-11-07T13:35:00.689Z,5.11
2022-11-07T13:37:32.267Z,4.79
2022-11-07T13:40:17.012Z,5.15
2022-11-07T13:42:45.451Z,5.03
2022-11-07T13:45:32.626Z,5.25
2022-11-07T13:48:10.432Z,4.90
2022-11-07T13:50:41.450Z,5.19
2022-11-07T13:53:25.133Z,5.11
2022-11-07T13:56:37.469Z,5.25
2022-11-07T13:59:10.724Z,4.82
2022-11-07T14:01:45.432Z,5.18
2022-11-07T14:04:22.351Z,4.97
2022-11-07T14:06:50.604Z,5.17
2022-11-07T14:09:20.514Z,5.10
2022-11-07T14:11:51.372Z,5.19
2022-11-07T14:14:18.854Z,5.03
2022-11-07T14:16:46.769Z,5.25
2022-11-07T14:19:24.311Z,5.26
2022-11-07T14:21:52.479Z,5.28
2022-11-07T14:24:32.830Z,4.92
2022-11-07T14:27:13.008Z,5.20
2022-11-07T14:29:54.021Z,5.10
2022-11-07T14:32:22.113Z,4.77
2022-11-07T14:34:52.476Z,5.13
2022-11-07T14:37:22.418Z,5.03
2022-11-07T14:39:50.496Z,5.02
2022-11-07T14:42:25.510Z,5.00
2022-11-07T14:44:57.996Z,4.87
2022-11-07T14:47:32.537Z,4.99
2022-11-07T14:50:02.049Z,4.98
2022-11-07T14:52:41.780Z,5.00
2022-11-07T14:55:19.075Z,4.79
2022-11-07T14:57:47.058Z,4.92
2022-11-07T15:00:20.690Z,4.44
2022-11-07T15:02:50.639Z,4.91
2022-11-07T15:05:35.850Z,5.16
2022-11-07T15:08:02.809Z,5.07
2022-11-07T15:10:33.535Z,4.99
2022-11-07T15:13:03.312Z,4.88
2022-11-07T15:15:35.773Z,4.92
2022-11-07T15:18:07.053Z,5.06
2022-11-07T15:20:36.046Z,5.07
2022-11-07T15:23:07.015Z,5.04
2022-11-07T15:25:40.805Z,5.07
2022-11-07T15:28:25.117Z,5.13
2022-11-07T15:30:57.985Z,5.02
2022-11-07T15:33:26.446Z,5.08
2022-11-07T15:35:57.289Z,5.05
2022-11-07T15:38:27.134Z,5.08
2022-11-07T15:40:54.423Z,4.62
2022-11-07T15:43:22.009Z,4.98
2022-11-07T15:45:51.371Z,4.92
2022-11-07T15:48:22.618Z,5.06
2022-11-07T15:50:50.336Z,4.95
2022-11-07T15:53:23.267Z,5.15
2022-11-07T15:55:58.295Z,4.97
2022-11-07T15:58:27.586Z,4.75
2022-11-07T16:00:55.763Z,5.13
2022-11-07T16:03:25.509Z,4.21
2022-11-07T16:05:54.854Z,5.28
2022-11-07T16:08:24.305Z,5.20
2022-11-07T16:10:56.869Z,5.22
2022-11-07T16:13:24.270Z,5.33
2022-11-07T16:15:56.275Z,5.34
2022-11-07T16:18:23.416Z,4.92
2022-11-07T16:20:51.490Z,5.32
2022-11-07T16:23:19.047Z,5.31
2022-11-07T16:25:51.175Z,5.25
2022-11-07T16:28:25.637Z,4.84
2022-11-07T16:30:53.105Z,5.25
2022-11-07T16:33:20.567Z,5.19
2022-11-07T16:35:50.542Z,5.27
2022-11-07T16:38:19.744Z,5.27
2022-11-07T16:40:47.453Z,5.27
2022-11-07T16:43:14.703Z,5.14
2022-11-07T16:45:48.350Z,5.22
2022-11-07T16:48:28.457Z,4.93
2022-11-07T16:50:57.548Z,5.04
2022-11-07T16:53:25.950Z,4.47
2022-11-07T16:56:01.233Z,4.72
2022-11-07T16:58:29.874Z,5.16
2022-11-07T17:00:59.558Z,5.19
2022-11-07T17:03:27.095Z,4.71
2022-11-07T17:05:56.042Z,5.17
2022-11-07T17:08:41.316Z,5.05
2022-11-07T17:11:09.939Z,4.88
2022-11-07T17:13:37.603Z,5.03
2022-11-07T17:16:21.235Z,4.63
2022-11-07T17:18:49.437Z,4.70
2022-11-07T17:21:24.137Z,5.11
2022-11-07T17:23:52.438Z,5.12
2022-11-07T17:26:22.771Z,5.15
2022-11-07T17:28:50.981Z,5.13
2022-11-07T17:31:19.375Z,5.24
2022-11-07T17:33:46.718Z,5.27
2022-11-07T17:36:24.587Z,5.22
2022-11-07T17:38:53.170Z,5.24
2022-11-07T17:41:22.035Z,4.90
2022-11-07T17:43:50.594Z,5.14
2022-11-07T17:46:21.151Z,4.82
2022-11-07T17:48:48.757Z,5.19
2022-11-07T17:51:16.824Z,5.02
2022-11-07T17:53:45.302Z,5.07
2022-11-07T17:56:21.057Z,4.86
2022-11-07T17:58:49.280Z,5.04
2022-11-07T18:01:21.808Z,4.88
2022-11-07T18:03:50.127Z,4.96
2022-11-07T18:06:17.956Z,4.90
2022-11-07T18:08:52.042Z,3.75
2022-11-07T18:11:21.975Z,4.99
2022-11-07T18:13:53.949Z,4.58
2022-11-07T18:16:24.253Z,4.85
2022-11-07T18:18:51.826Z,4.77
2022-11-07T18:21:19.694Z,4.92
2022-11-07T18:23:46.896Z,3.91
2022-11-07T18:26:21.479Z,4.91
2022-11-07T18:28:52.199Z,4.77
2022-11-07T18:31:22.183Z,4.79
2022-11-07T18:33:52.749Z,4.81
2022-11-07T18:36:21.368Z,4.46
2022-11-07T18:38:48.725Z,4.76
2022-11-07T18:41:19.719Z,4.71
2022-11-07T18:43:46.953Z,4.84
2022-11-07T18:46:16.079Z,4.79
2022-11-07T18:48:43.497Z,4.37
2022-11-07T18:51:16.985Z,4.79
2022-11-07T18:53:44.568Z,4.70
2022-11-07T18:56:13.270Z,4.74
2022-11-07T18:58:43.799Z,4.78
2022-11-07T19:01:19.798Z,4.79
2022-11-07T19:03:47.296Z,4.65
2022-11-07T19:06:18.626Z,4.57
2022-11-07T19:08:48.517Z,4.75
2022-11-07T19:11:22.707Z,4.85
2022-11-07T19:13:50.069Z,4.69
2022-11-07T19:16:19.474Z,4.60
2022-11-07T19:18:49.589Z,4.76
2022-11-07T19:21:20.445Z,4.81
2022-11-07T19:23:48.838Z,3.93
2022-11-07T19:26:17.023Z,4.70
2022-11-07T19:28:44.083Z,4.46
2022-11-07T19:31:13.552Z,4.87
2022-11-07T19:33:41.869Z,4.89
2022-11-07T19:36:14.363Z,4.85
2022-11-07T19:38:41.503Z,4.85
2022-11-07T19:41:09.246Z,4.24
2022-11-07T19:43:36.913Z,4.83
2022-11-07T19:46:10.025Z,4.73
2022-11-07T19:48:38.286Z,4.80
2022-11-07T19:51:13.641Z,4.92
2022-11-07T19:53:45.300Z,4.66
2022-11-07T19:56:15.295Z,4.35
2022-11-07T19:58:42.877Z,4.80
2022-11-07T20:01:15.693Z,4.83
2022-11-07T20:03:45.041Z,4.92
2022-11-07T20:06:14.059Z,4.79
2022-11-07T20:08:43.424Z,4.90
2022-11-07T20:11:14.166Z,4.97
2022-11-07T20:13:41.429Z,4.97
2022-11-07T20:16:09.359Z,4.79
2022-11-07T20:18:37.411Z,5.03
2022-11-07T20:21:07.707Z,5.06
2022-11-07T20:23:34.837Z,5.01
2022-11-07T20:26:08.559Z,4.62
2022-11-07T20:28:36.469Z,5.07
2022-11-07T20:31:11.297Z,5.00
2022-11-07T20:33:38.662Z,4.92
2022-11-07T20:36:10.586Z,4.93
2022-11-07T20:38:37.752Z,4.91
2022-11-07T20:41:05.846Z,4.92
2022-11-07T20:43:34.580Z,4.61
2022-11-07T20:46:10.094Z,4.82
2022-11-07T20:48:38.316Z,4.82
2022-11-07T20:51:16.548Z,4.20
2022-11-07T20:53:49.776Z,4.74
2022-11-07T20:56:19.359Z,4.80
2022-11-07T20:58:47.416Z,4.32
2022-11-07T21:01:20.645Z,4.57
2022-11-07T21:03:48.400Z,4.83
2022-11-07T21:06:15.673Z,4.79
2022-11-07T21:08:48.723Z,4.79
2022-11-07T21:11:16.600Z,4.80
2022-11-07T21:13:49.686Z,4.87
2022-11-07T21:16:23.487Z,4.57
2022-11-07T21:18:52.326Z,4.72
2022-11-07T21:21:27.141Z,4.76
2022-11-07T21:23:56.769Z,4.85
2022-11-07T21:26:33.616Z,4.89
2022-11-07T21:29:02.206Z,4.67
2022-11-07T21:31:31.367Z,4.87
2022-11-07T21:33:58.858Z,4.84
2022-11-07T21:36:28.745Z,4.25
2022-11-07T21:38:57.630Z,4.78
2022-11-07T21:41:25.181Z,4.59
2022-11-07T21:43:52.655Z,4.71
2022-11-07T21:46:22.361Z,4.82
2022-11-07T21:48:50.312Z,4.12
2022-11-07T21:51:20.405Z,4.79
2022-11-07T21:53:48.213Z,4.84
2022-11-07T21:56:27.175Z,4.52
2022-11-07T21:58:57.666Z,4.81
2022-11-07T22:01:25.126Z,4.91
2022-11-07T22:04:12.118Z,4.75
2022-11-07T22:06:41.623Z,5.07
2022-11-07T22:09:10.440Z,4.97
2022-11-07T22:11:37.800Z,3.28
2022-11-07T22:14:05.022Z,4.98
2022-11-07T22:16:32.268Z,4.94
2022-11-07T22:19:00.548Z,4.90
2022-11-07T22:21:28.020Z,4.97
2022-11-07T22:23:56.487Z,5.10
2022-11-07T22:26:25.575Z,5.12
2022-11-07T22:28:54.138Z,4.91
2022-11-07T22:31:27.187Z,5.04
2022-11-07T22:33:55.119Z,5.00
2022-11-07T22:36:22.402Z,4.94
2022-11-07T22:38:49.834Z,4.91
2022-11-07T22:41:19.189Z,4.99
2022-11-07T22:43:47.607Z,4.95
2022-11-07T22:46:18.042Z,4.85
2022-11-07T22:48:46.827Z,4.90
2022-11-07T22:51:20.052Z,4.93
2022-11-07T22:53:47.424Z,5.00
2022-11-07T22:56:17.313Z,5.16
2022-11-07T22:58:46.030Z,5.18
2022-11-07T23:01:19.775Z,5.17
2022-11-07T23:03:47.848Z,5.10
2022-11-07T23:06:16.008Z,4.49
2022-11-07T23:08:43.361Z,4.91
2022-11-07T23:14:10.278Z,5.13
2022-11-07T23:16:39.760Z,5.18
2022-11-07T23:19:09.359Z,5.19
2022-11-07T23:21:36.722Z,4.63
2022-11-07T23:24:04.452Z,5.21
2022-11-07T23:26:35.589Z,4.97
2022-11-07T23:29:10.742Z,5.24
2022-11-07T23:31:40.884Z,5.19
2022-11-07T23:34:08.556Z,5.27
2022-11-07T23:36:35.910Z,5.17
2022-11-07T23:39:05.419Z,5.27
2022-11-07T23:41:32.519Z,5.11
2022-11-07T23:44:00.042Z,5.15
2022-11-07T23:46:45.476Z,5.34
2022-11-07T23:49:31.208Z,5.34
2022-11-07T23:51:58.320Z,5.32
2022-11-07T23:54:44.022Z,5.25
2022-11-07T23:57:11.201Z,4.96
2022-11-07T23:59:56.753Z,5.19
